Time;durP1;ratioP1;P1;durP2;ratioP2;P2;SDS_P1;SDS_P2;PMS_P1;PMS_P2;Temp;Humidity;BMP_temperature;BMP_pressure;BME280_temperature;BME280_humidity;BME280_pressure;Samples;Min_cycle;Max_cycle;Signal;HPM_P1;HPM_P2
2023/10/28 00:00:58;;;;;;;7.70;3.10;;;;;;;17.01;68.03;97735.98;105095;1261;62780;-60
2023/10/28 00:03:26;;;;;;;6.40;2.60;;;;;;;17.02;67.94;97728.44;105143;1256;60349;-59
2023/10/28 00:05:54;;;;;;;8.00;3.60;;;;;;;17.05;68.07;97720.63;105590;1257;64924;-61
2023/10/28 00:08:21;;;;;;;8.60;3.30;;;;;;;17.05;68.12;97716.24;105871;1260;61782;-62
2023/10/28 00:10:51;;;;;;;8.00;3.60;;;;;;;17.04;68.21;97714.05;105046;1256;63882;-60
2023/10/28 00:13:19;;;;;;;5.30;2.80;;;;;;;17.02;68.29;97714.54;105708;1257;60609;-61
2023/10/28 00:15:46;;;;;;;9.50;3.70;;;;;;;17.05;68.14;97710.23;105183;1261;60456;-59
2023/10/28 00:18:15;;;;;;;7.70;3.30;;;;;;;17.03;67.94;97707.61;105053;1258;65011;-62
2023/10/28 00:20:44;;;;;;;9.00;3.30;;;;;;;17.04;67.90;97701.71;105206;1260;61367;-62
2023/10/28 00:23:14;;;;;;;8.30;3.40;;;;;;;17.06;68.05;97693.73;105121;1260;64231;-60
2023/10/28 00:25:42;;;;;;;6.70;3.30;;;;;;;17.07;68.12;97687.45;105195;1258;60469;-60
2023/10/28 00:28:10;;;;;;;7.50;3.90;;;;;;;17.06;68.07;97677.70;105065;1259;60458;-59
2023/10/28 00:30:39;;;;;;;9.10;3.10;;;;;;;17.06;68.16;97671.06;105267;1260;64930;-60
2023/10/28 00:33:06;;;;;;;7.90;3.20;;;;;;;17.05;68.00;97674.98;105317;1260;60505;-59
2023/10/28 00:35:34;;;;;;;7.30;3.80;;;;;;;17.05;67.75;97662.21;105370;1259;63760;-59
2023/10/28 00:38:02;;;;;;;6.90;3.00;;;;;;;17.09;67.81;97654.39;105480;1261;60630;-59
2023/10/28 00:40:32;;;;;;;10.20;3.30;;;;;;;17.14;67.80;97652.48;105166;1260;60528;-59
2023/10/28 00:43:00;;;;;;;10.10;3.90;;;;;;;17.13;67.71;97655.17;105075;1257;65102;-58
2023/10/28 00:45:28;;;;;;;7.00;3.20;;;;;;;17.14;67.60;97641.63;105497;1259;60467;-58
2023/10/28 00:47:57;;;;;;;9.00;2.70;;;;;;;17.16;67.65;97637.92;105487;1258;63877;-57
2023/10/28 00:50:25;;;;;;;7.30;3.50;;;;;;;17.20;67.59;97628.64;105413;1264;60512;-57
2023/10/28 00:52:53;;;;;;;6.50;3.20;;;;;;;17.23;67.30;97624.77;104817;1257;60567;-62
2023/10/28 00:55:22;;;;;;;8.10;3.20;;;;;;;17.24;67.07;97619.85;105830;1256;64976;-58
2023/10/28 00:57:51;;;;;;;7.20;3.20;;;;;;;17.23;66.91;97617.30;105671;1256;61440;-59
2023/10/28 01:00:20;;;;;;;6.80;3.10;;;;;;;17.21;66.68;97610.91;105629;1259;62445;-58
2023/10/28 01:02:48;;;;;;;7.10;2.90;;;;;;;17.21;66.58;97606.41;105537;1260;60428;-59
2023/10/28 01:05:16;;;;;;;8.10;3.40;;;;;;;17.23;66.43;97614.80;105047;1257;60302;-57
2023/10/28 01:07:46;;;;;;;6.90;2.80;;;;;;;17.24;66.35;97617.68;105115;1258;63686;-54
2023/10/28 01:10:30;;;;;;;7.20;3.50;;;;;;;17.23;66.39;97611.13;104984;1257;60561;-54
2023/10/28 01:13:01;;;;;;;9.40;3.50;;;;;;;17.23;66.51;97605.11;105420;1260;62616;-56
2023/10/28 01:15:30;;;;;;;6.50;2.50;;;;;;;17.22;66.46;97601.95;105529;1257;61621;-56
2023/10/28 01:17:57;;;;;;;7.40;3.10;;;;;;;17.24;66.10;97607.06;105448;1256;60444;-55
2023/10/28 01:20:25;;;;;;;7.90;3.00;;;;;;;17.25;66.07;97602.98;105062;1256;63714;-57
2023/10/28 01:22:53;;;;;;;6.80;2.50;;;;;;;17.25;65.91;97597.99;105102;1260;60415;-56
2023/10/28 01:25:21;;;;;;;6.10;3.00;;;;;;;17.27;65.98;97595.14;105782;1257;63744;-54
2023/10/28 01:27:49;;;;;;;9.20;2.90;;;;;;;17.25;65.70;97596.65;105080;1257;60479;-55
2023/10/28 01:30:17;;;;;;;6.80;2.80;;;;;;;17.24;65.72;97587.18;105478;1261;490419;-55
2023/10/28 01:34:18;;;;;;;5.80;2.60;;;;;;;17.06;66.25;97583.81;102396;1290;600973;-55
2023/10/28 01:36:46;;;;;;;11.40;2.20;;;;;;;17.28;65.44;97584.00;104318;1270;61674;-54
2023/10/28 01:39:15;;;;;;;6.20;2.50;;;;;;;17.33;65.20;97584.25;104601;1265;59254;-56
2023/10/28 01:41:43;;;;;;;7.00;2.30;;;;;;;17.36;65.00;97580.23;104752;1267;63242;-55
2023/10/28 01:44:11;;;;;;;6.90;2.40;;;;;;;17.37;64.87;97581.80;104857;1261;61357;-56
2023/10/28 01:46:41;;;;;;;7.10;2.40;;;;;;;17.36;64.74;97584.59;104939;1266;63802;-55
2023/10/28 01:49:10;;;;;;;8.00;2.40;;;;;;;17.34;64.69;97582.01;102824;1264;59374;-54
2023/10/28 01:51:38;;;;;;;8.00;2.40;;;;;;;17.34;64.54;97578.34;105305;1258;59425;-56
2023/10/28 01:54:05;;;;;;;5.60;2.20;;;;;;;17.38;64.32;97573.95;104924;1264;59240;-55
2023/10/28 01:56:33;;;;;;;8.80;2.30;;;;;;;17.43;64.04;97566.00;105118;1258;61823;-55
2023/10/28 01:59:01;;;;;;;5.80;2.50;;;;;;;17.45;63.96;97565.48;104784;1264;62887;-55
2023/10/28 02:01:29;;;;;;;6.50;2.80;;;;;;;17.45;63.90;97560.80;105481;1260;59737;-59
2023/10/28 02:03:57;;;;;;;7.40;2.20;;;;;;;17.44;63.67;97559.89;105370;1261;59689;-60
2023/10/28 02:06:25;;;;;;;8.00;1.90;;;;;;;17.44;63.59;97557.49;104981;1257;62896;-56
2023/10/28 02:08:52;;;;;;;6.00;2.00;;;;;;;17.48;63.57;97553.35;105058;1263;60231;-60
2023/10/28 02:11:23;;;;;;;4.90;1.90;;;;;;;17.53;63.35;97554.14;105036;1264;64273;-55
2023/10/28 02:13:50;;;;;;;5.60;2.30;;;;;;;17.56;63.22;97551.96;105695;1261;59671;-59
2023/10/28 02:16:20;;;;;;;6.20;2.20;;;;;;;17.57;63.03;97552.79;105015;1261;59742;-56
2023/10/28 02:18:47;;;;;;;7.10;2.50;;;;;;;17.57;62.72;97547.58;105659;1263;64162;-60
2023/10/28 02:21:16;;;;;;;5.50;2.00;;;;;;;17.59;62.45;97543.83;105129;1263;61476;-55
2023/10/28 02:23:44;;;;;;;5.90;1.90;;;;;;;17.64;62.10;97544.20;105014;1258;62492;-57
2023/10/28 02:26:11;;;;;;;5.90;1.90;;;;;;;17.71;61.73;97549.84;104823;1261;59752;-55
2023/10/28 02:28:39;;;;;;;6.30;2.10;;;;;;;17.76;61.17;97558.55;105997;1263;59739;-59
2023/10/28 02:31:10;;;;;;;5.80;2.00;;;;;;;17.80;60.56;97565.80;105274;1258;64062;-54
2023/10/28 02:33:39;;;;;;;8.00;1.50;;;;;;;17.83;59.88;97566.51;105084;1263;60483;-57
2023/10/28 02:36:08;;;;;;;6.20;1.80;;;;;;;17.87;59.90;97562.11;105110;1260;63884;-55
2023/10/28 02:38:35;;;;;;;5.20;1.40;;;;;;;17.87;59.44;97567.64;105327;1260;59749;-61
2023/10/28 02:41:06;;;;;;;4.40;1.20;;;;;;;17.89;58.71;97552.65;105355;1260;59557;-63
2023/10/28 02:43:35;;;;;;;7.50;2.00;;;;;;;17.92;57.27;97545.99;105275;1261;62886;-59
2023/10/28 02:46:05;;;;;;;5.00;0.90;;;;;;;17.91;55.47;97540.90;105398;1262;61377;-60
2023/10/28 02:48:33;;;;;;;2.80;0.70;;;;;;;17.89;54.54;97545.24;104967;1260;63845;-59
2023/10/28 02:51:07;;;;;;;6.80;0.60;;;;;;;17.84;53.32;97561.10;104896;1261;59913;-60
2023/10/28 02:53:34;;;;;;;1.20;0.30;;;;;;;17.76;52.64;97561.48;105327;1260;59605;-60
2023/10/28 02:56:05;;;;;;;3.80;0.50;;;;;;;17.67;52.50;97570.08;105019;1263;64170;-58
2023/10/28 02:58:33;;;;;;;6.30;0.70;;;;;;;17.57;52.38;97581.55;105158;1260;61379;-63
2023/10/28 03:01:11;;;;;;;1.80;0.40;;;;;;;17.44;51.60;97591.19;105237;1260;63708;-60
2023/10/28 03:03:39;;;;;;;1.10;0.30;;;;;;;17.30;51.77;97597.23;105196;1260;59673;-60
2023/10/28 03:06:07;;;;;;;1.20;0.20;;;;;;;17.16;51.96;97588.27;105241;1262;59753;-62
2023/10/28 03:08:34;;;;;;;4.30;0.40;;;;;;;17.00;51.99;97592.63;105202;1260;64061;-59
2023/10/28 03:11:02;;;;;;;0.50;0.20;;;;;;;16.87;52.38;97600.55;105214;1257;61343;-61
2023/10/28 03:13:30;;;;;;;1.80;0.20;;;;;;;16.72;52.60;97595.74;105170;1257;63942;-59
2023/10/28 03:15:58;;;;;;;0.80;0.10;;;;;;;16.62;53.12;97587.75;105668;1258;59767;-61
2023/10/28 03:18:25;;;;;;;1.20;0.10;;;;;;;16.52;53.51;97582.11;105157;1263;60737;-59
2023/10/28 03:20:55;;;;;;;3.30;0.30;;;;;;;16.40;53.60;97582.47;105257;1258;64278;-58
2023/10/28 03:23:23;;;;;;;2.10;0.20;;;;;;;16.30;53.83;97576.67;105105;1260;60272;-59
2023/10/28 03:25:52;;;;;;;0.60;0.10;;;;;;;16.22;53.84;97582.56;106646;1257;62523;-59
2023/10/28 03:28:19;;;;;;;0.70;0.10;;;;;;;16.15;53.87;97587.71;105798;1258;59631;-64
2023/10/28 03:30:47;;;;;;;0.90;0.20;;;;;;;16.12;54.06;97565.60;105168;1257;59662;-61
2023/10/28 03:33:15;;;;;;;2.80;0.30;;;;;;;16.08;54.02;97560.64;105248;1258;64120;-61
2023/10/28 03:35:44;;;;;;;2.00;0.20;;;;;;;16.05;53.98;97561.88;105247;1258;61358;-59
2023/10/28 03:38:11;;;;;;;3.40;0.40;;;;;;;16.03;54.12;97559.82;105223;1256;64083;-59
2023/10/28 03:40:39;;;;;;;1.30;0.20;;;;;;;16.00;54.18;97558.25;105168;1263;59644;-58
2023/10/28 03:43:07;;;;;;;1.00;0.20;;;;;;;15.98;54.30;97550.67;105397;1257;59542;-56
2023/10/28 03:45:37;;;;;;;1.90;0.30;;;;;;;15.97;54.35;97547.63;105227;1258;64115;-62
2023/10/28 03:48:05;;;;;;;1.70;0.20;;;;;;;15.96;54.21;97544.27;105234;1258;61595;-60
2023/10/28 03:50:33;;;;;;;1.20;0.20;;;;;;;15.95;54.04;97540.85;106246;1257;63743;-61
2023/10/28 03:53:00;;;;;;;1.10;0.30;;;;;;;15.94;53.89;97541.35;105097;1258;59634;-59
2023/10/28 03:55:28;;;;;;;1.20;0.10;;;;;;;15.93;53.81;97529.38;105931;1251;59765;-59
2023/10/28 03:57:55;;;;;;;5.40;0.40;;;;;;;15.92;53.96;97518.16;105518;1257;64659;-59
2023/10/28 04:00:23;;;;;;;1.80;0.30;;;;;;;15.90;53.87;97514.30;105547;1257;60303;-59
2023/10/28 04:02:51;;;;;;;1.40;0.30;;;;;;;15.89;53.88;97519.11;105494;1251;63695;-62
2023/10/28 04:05:19;;;;;;;3.40;0.30;;;;;;;15.87;53.90;97516.95;106089;1254;59738;-63
2023/10/28 04:07:47;;;;;;;1.90;0.30;;;;;;;15.85;53.94;97508.98;105307;1257;60478;-61
2023/10/28 04:10:15;;;;;;;5.20;0.60;;;;;;;15.83;53.92;97513.74;105650;1257;62944;-61
2023/10/28 04:12:42;;;;;;;1.60;0.30;;;;;;;15.80;53.91;97498.89;105584;1251;61363;-64
2023/10/28 04:15:13;;;;;;;3.80;0.40;;;;;;;15.78;53.94;97500.87;105326;1254;63785;-61
2023/10/28 04:17:40;;;;;;;0.80;0.20;;;;;;;15.75;53.92;97502.00;105432;1251;59771;-63
2023/10/28 04:20:10;;;;;;;1.10;0.20;;;;;;;15.73;53.98;97492.68;105565;1256;59601;-61
2023/10/28 04:22:37;;;;;;;2.00;0.30;;;;;;;15.70;54.14;97490.11;105786;1251;62905;-61
2023/10/28 04:25:06;;;;;;;7.40;2.90;;;;;;;15.69;54.01;97472.20;105154;1257;60277;-60
2023/10/28 04:27:34;;;;;;;0.80;0.20;;;;;;;15.75;54.04;97478.08;106626;1257;62517;-59
2023/10/28 04:30:04;;;;;;;2.00;0.40;;;;;;;15.76;54.00;97473.66;105643;1254;61551;-63
2023/10/28 04:32:32;;;;;;;2.50;0.30;;;;;;;15.73;53.92;97478.77;105709;1251;59558;-61
2023/10/28 04:34:59;;;;;;;4.30;0.80;;;;;;;15.70;53.81;97465.98;105219;1251;71784;-65
2023/10/28 04:37:46;;;;;;;;;;;;;;;15.67;53.68;97477.19;105421;1255;61557;-61
2023/10/28 04:40:13;;;;;;;1.50;0.50;;;;;;;15.64;53.77;97468.15;105368;1257;63888;-63
2023/10/28 04:42:41;;;;;;;3.60;0.80;;;;;;;15.60;53.94;97465.77;105422;1251;59835;-60
2023/10/28 04:45:10;;;;;;;4.90;1.20;;;;;;;15.57;54.00;97478.25;105427;1252;59666;-60
2023/10/28 04:47:37;;;;;;;2.70;0.20;;;;;;;15.54;54.18;97476.21;105402;1257;64151;-61
2023/10/28 04:50:05;;;;;;;4.30;1.10;;;;;;;15.49;54.31;97473.59;105412;1254;61635;-64
2023/10/28 04:52:33;;;;;;;2.80;0.50;;;;;;;15.44;54.47;97487.59;105389;1251;63766;-60
2023/10/28 04:55:00;;;;;;;6.20;2.00;;;;;;;15.39;54.62;97470.91;105666;1256;59661;-57
2023/10/28 04:57:28;;;;;;;2.70;0.60;;;;;;;15.35;54.76;97480.44;105296;1253;59710;-57
2023/10/28 04:59:56;;;;;;;4.50;1.20;;;;;;;15.37;54.72;97471.02;105390;1251;62918;-57
2023/10/28 05:02:23;;;;;;;8.10;3.30;;;;;;;15.41;54.75;97472.27;105401;1251;61380;-54
2023/10/28 05:04:51;;;;;;;7.60;3.20;;;;;;;15.38;54.84;97465.00;105404;1254;64274;-64
2023/10/28 05:07:18;;;;;;;4.70;1.10;;;;;;;15.37;54.87;97483.80;105460;1257;59737;-60
2023/10/28 05:09:46;;;;;;;3.40;1.30;;;;;;;15.32;54.78;97492.32;105301;1251;60032;-62
2023/10/28 05:12:14;;;;;;;4.90;1.60;;;;;;;15.26;54.87;97485.60;105342;1251;62855;-60
2023/10/28 05:14:42;;;;;;;2.80;0.70;;;;;;;15.22;54.89;97476.02;105457;1251;60264;-62
2023/10/28 05:17:10;;;;;;;5.60;1.90;;;;;;;15.18;55.13;97484.48;105316;1257;62486;-61
2023/10/28 05:19:38;;;;;;;3.60;1.00;;;;;;;15.15;55.42;97488.80;105585;1256;59746;-62
2023/10/28 05:24:43;;;;;;;2.90;0.60;;;;;;;14.99;56.48;97494.45;104734;1292;600680;-87
2023/10/28 05:27:12;;;;;;;3.60;0.50;;;;;;;15.11;56.13;97502.45;106295;1273;59406;-87
2023/10/28 05:30:57;;;;;;;3.00;0.80;;;;;;;14.88;56.92;97503.61;104987;1288;599831;-88
2023/10/28 05:33:25;;;;;;;5.30;0.70;;;;;;;14.92;56.93;97501.09;106045;1276;58997;-86
2023/10/28 05:36:58;;;;;;;6.40;1.10;;;;;;;14.68;57.89;97513.72;104392;1289;600368;-86
2023/10/28 05:39:30;;;;;;;2.40;0.40;;;;;;;14.77;57.38;97520.79;106394;1270;59392;-88
2023/10/28 05:42:01;;;;;;;6.10;2.00;;;;;;;14.73;57.51;97534.80;106951;1260;59325;-89
2023/10/28 05:44:29;;;;;;;2.80;0.50;;;;;;;14.61;57.54;97546.86;106904;1258;62695;-88
2023/10/28 05:47:01;;;;;;;5.20;0.60;;;;;;;14.47;57.99;97553.81;106586;1257;61930;-85
2023/10/28 05:49:32;;;;;;;1.80;0.30;;;;;;;14.37;58.57;97543.37;104102;1262;3387134;-84
2023/10/28 05:52:02;;;;;;;2.20;0.50;;;;;;;14.23;57.88;97565.13;106595;1254;59204;-83
2023/10/28 05:54:31;;;;;;;3.40;0.70;;;;;;;14.18;58.64;97569.61;106404;1258;59206;-85
2023/10/28 05:57:01;;;;;;;1.70;0.40;;;;;;;14.21;57.61;97578.05;106347;1254;62922;-85
2023/10/28 06:00:44;;;;;;;1.80;0.30;;;;;;;14.07;57.89;97575.58;104365;1292;601942;-85
2023/10/28 06:03:13;;;;;;;3.40;0.40;;;;;;;14.18;57.22;97587.17;106038;1266;59150;-86
2023/10/28 06:08:18;;;;;;;9.90;0.40;;;;;;;13.94;56.92;97588.47;104580;1289;601186;-83
2023/10/28 06:10:48;;;;;;;4.00;0.90;;;;;;;14.08;56.27;97603.52;106700;1261;58868;-84
2023/10/28 06:13:18;;;;;;;0.90;0.20;;;;;;;14.08;56.38;97620.61;106526;1268;59118;-86
2023/10/28 06:18:22;;;;;;;3.40;0.50;;;;;;;13.79;56.84;97661.62;104225;1295;600268;-87
2023/10/28 06:20:52;;;;;;;4.80;0.60;;;;;;;13.91;56.55;97640.50;106195;1274;60222;-86
2023/10/28 06:23:21;;;;;;;2.00;0.30;;;;;;;13.91;56.55;97633.98;105795;1268;62278;-84
2023/10/28 06:25:50;;;;;;;1.80;0.50;;;;;;;13.86;56.77;97643.21;105586;1274;63681;-85
2023/10/28 06:29:46;;;;;;;5.70;0.70;;;;;;;13.57;57.45;97647.53;104482;1291;600813;-84
2023/10/28 06:32:15;;;;;;;6.10;0.50;;;;;;;13.60;57.33;97673.20;107390;1265;58842;-85
2023/10/28 06:36:28;;;;;;;1.70;0.30;;;;;;;13.30;58.43;97671.57;104414;1291;601965;-88
2023/10/28 06:39:16;;;;;;;6.80;0.60;;;;;;;13.42;58.63;97703.41;106961;1256;58075;-84
2023/10/28 06:41:44;;;;;;;3.80;0.40;;;;;;;13.37;58.36;97719.02;106778;1255;59318;-82
2023/10/28 06:44:14;;;;;;;1.80;0.60;;;;;;;13.33;58.35;97718.66;106515;1257;72712;-83
2023/10/28 06:46:44;;;;;;;2.10;0.40;;;;;;;13.23;58.13;97740.27;106298;1262;61934;-82
2023/10/28 06:49:14;;;;;;;1.40;0.40;;;;;;;13.18;58.49;97718.70;104065;1253;3129343;-82
2023/10/28 06:51:45;;;;;;;1.50;0.40;;;;;;;13.15;58.70;97735.59;106662;1253;59171;-82
2023/10/28 06:54:15;;;;;;;2.20;0.50;;;;;;;13.17;58.50;97748.84;106326;1260;61424;-83
2023/10/28 06:56:44;;;;;;;2.10;0.60;;;;;;;13.21;58.32;97741.77;106695;1253;66686;-83
2023/10/28 06:59:15;;;;;;;2.10;0.50;;;;;;;13.19;58.51;97771.63;106695;1253;60831;-84
2023/10/28 07:01:44;;;;;;;3.30;0.40;;;;;;;13.15;58.23;97780.96;106737;1253;65683;-82
2023/10/28 07:04:13;;;;;;;6.50;0.70;;;;;;;13.07;58.27;97778.65;106656;1262;59627;-84
2023/10/28 07:06:44;;;;;;;4.40;0.40;;;;;;;13.01;58.57;97820.02;106464;1253;59689;-84
2023/10/28 07:09:15;;;;;;;2.20;0.40;;;;;;;13.04;58.26;97813.66;106608;1253;75516;-83
2023/10/28 07:11:45;;;;;;;2.30;0.50;;;;;;;13.12;58.42;97822.11;106441;1254;70138;-85
2023/10/28 07:14:14;;;;;;;2.30;0.40;;;;;;;13.07;58.20;97847.58;106600;1254;64309;-84
2023/10/28 07:16:45;;;;;;;3.70;0.50;;;;;;;13.04;58.17;97830.23;106522;1253;59740;-83
2023/10/28 07:19:16;;;;;;;2.90;0.80;;;;;;;13.01;58.19;97845.34;106629;1253;62574;-83
2023/10/28 07:21:45;;;;;;;2.40;0.50;;;;;;;13.00;58.21;97853.31;106506;1254;73716;-83
2023/10/28 07:24:15;;;;;;;1.60;0.30;;;;;;;12.99;58.34;97884.76;106677;1253;62331;-88
2023/10/28 07:26:46;;;;;;;2.40;0.60;;;;;;;13.04;58.34;97877.30;106510;1254;63356;-86
2023/10/28 07:29:17;;;;;;;3.80;0.50;;;;;;;13.11;58.48;97881.66;106917;1253;59682;-85
2023/10/28 07:31:47;;;;;;;1.10;0.40;;;;;;;13.10;58.51;97915.53;107053;1253;59614;-90
2023/10/28 07:34:18;;;;;;;3.30;0.50;;;;;;;13.09;59.08;97898.45;106616;1253;75551;-92
2023/10/28 07:37:36;;;;;;;1.80;0.50;;;;;;;12.91;59.49;97910.36;104064;1291;603802;-88
2023/10/28 07:40:05;;;;;;;1.70;0.50;;;;;;;13.15;59.08;97913.91;107049;1268;59322;-88
2023/10/28 07:42:34;;;;;;;1.70;0.70;;;;;;;13.23;58.86;97942.33;107899;1259;59194;-89
2023/10/28 07:46:59;;;;;;;0.40;0.10;;;;;;;13.22;59.40;97940.05;104709;1292;601153;-89
2023/10/28 07:49:29;;;;;;;1.80;0.40;;;;;;;13.32;58.90;97936.93;106938;1262;61765;-89
2023/10/28 07:51:59;;;;;;;2.30;0.70;;;;;;;13.34;59.16;97940.96;107032;1256;59047;-88
2023/10/28 07:54:28;;;;;;;1.90;0.60;;;;;;;13.34;59.13;97964.33;107103;1262;74695;-88
2023/10/28 07:56:58;;;;;;;2.90;0.60;;;;;;;13.41;58.80;97959.02;107044;1255;62773;-89
2023/10/28 07:59:28;;;;;;;2.10;0.70;;;;;;;13.46;58.61;97971.79;104410;1256;3178623;-89
2023/10/28 08:01:58;;;;;;;5.10;0.70;;;;;;;13.42;58.03;98020.95;106866;1263;59405;-89
2023/10/28 08:06:43;;;;;;;3.00;0.60;;;;;;;13.24;59.41;98013.44;105089;1290;600942;-88
2023/10/28 08:10:32;;;;;;;1.30;0.10;;;;;;;13.19;59.33;98019.58;104237;1289;600770;-89
2023/10/28 08:13:02;;;;;;;2.80;0.50;;;;;;;13.45;58.78;98023.84;106015;1269;59770;-88
2023/10/28 08:15:32;;;;;;;2.20;0.80;;;;;;;13.51;58.40;98037.31;106199;1261;59575;-91
2023/10/28 08:20:48;;;;;;;2.00;0.70;;;;;;;13.47;59.20;98062.67;108503;1265;61694;-56
2023/10/28 08:23:17;;;;;;;2.00;0.60;;;;;;;13.48;58.91;98079.45;106232;1263;3165172;-56
2023/10/28 08:25:46;;;;;;;4.40;1.00;;;;;;;13.50;58.93;98089.38;108666;1266;57093;-60
2023/10/28 08:28:15;;;;;;;4.60;1.00;;;;;;;13.57;58.60;98074.65;108580;1264;57041;-55
2023/10/28 08:30:44;;;;;;;2.20;0.80;;;;;;;13.70;58.57;98080.27;108617;1263;73360;-57
2023/10/28 08:33:14;;;;;;;2.30;0.70;;;;;;;13.76;58.15;98089.66;108685;1263;61490;-58
2023/10/28 08:35:45;;;;;;;2.40;0.80;;;;;;;13.81;57.77;98123.98;108634;1263;65090;-56
2023/10/28 08:38:12;;;;;;;4.30;1.00;;;;;;;13.87;57.88;98103.64;108527;1263;57402;-57
2023/10/28 08:40:44;;;;;;;6.90;0.90;;;;;;;13.92;57.71;98103.92;108653;1264;58278;-55
2023/10/28 08:43:11;;;;;;;2.60;0.80;;;;;;;13.92;57.22;98134.88;108674;1262;72839;-57
2023/10/28 08:45:39;;;;;;;3.60;0.70;;;;;;;13.93;57.43;98124.05;108517;1264;60266;-56
2023/10/28 08:48:09;;;;;;;2.50;0.80;;;;;;;14.01;57.72;98125.07;108621;1261;63714;-56
2023/10/28 08:50:38;;;;;;;3.30;0.80;;;;;;;13.98;57.52;98150.19;108716;1260;57500;-56
2023/10/28 08:53:06;;;;;;;3.40;1.20;;;;;;;13.93;57.26;98138.09;108766;1260;57602;-57
2023/10/28 08:55:37;;;;;;;2.30;0.80;;;;;;;13.88;57.43;98153.37;108707;1260;64138;-57
2023/10/28 08:58:06;;;;;;;3.70;1.00;;;;;;;13.90;57.97;98158.34;108730;1260;60268;-54
2023/10/28 09:00:35;;;;;;;3.00;1.00;;;;;;;13.93;57.82;98182.02;108712;1260;64633;-56
2023/10/28 09:03:04;;;;;;;3.20;1.00;;;;;;;14.04;57.33;98198.45;108787;1260;57615;-58
2023/10/28 09:05:31;;;;;;;2.70;1.20;;;;;;;14.11;56.83;98200.59;108737;1260;57677;-57
2023/10/28 09:07:59;;;;;;;3.70;1.10;;;;;;;14.14;56.33;98198.92;108829;1261;64245;-55
2023/10/28 09:10:26;;;;;;;3.30;1.20;;;;;;;14.14;56.26;98233.64;108779;1260;60214;-56
2023/10/28 09:12:58;;;;;;;3.70;1.10;;;;;;;14.15;55.88;98211.52;108798;1259;63894;-55
2023/10/28 09:15:26;;;;;;;2.60;0.80;;;;;;;14.16;55.93;98212.69;108654;1261;57664;-56
2023/10/28 09:18:01;;;;;;;3.70;1.20;;;;;;;14.13;55.53;98221.59;108765;1262;57679;-55
2023/10/28 09:20:29;;;;;;;6.00;1.60;;;;;;;14.12;55.53;98242.42;108737;1259;64156;-57
2023/10/28 09:22:56;;;;;;;3.40;1.40;;;;;;;14.09;55.54;98237.98;108788;1262;60130;-57
2023/10/28 09:25:24;;;;;;;5.60;1.50;;;;;;;14.12;55.60;98248.89;108739;1260;63693;-57
2023/10/28 09:27:53;;;;;;;3.00;1.00;;;;;;;14.20;55.46;98240.98;108830;1260;57796;-61
2023/10/28 09:30:21;;;;;;;4.70;1.50;;;;;;;14.31;55.09;98277.80;108892;1259;57421;-55
2023/10/28 09:32:52;;;;;;;8.00;1.70;;;;;;;14.33;54.87;98316.43;108847;1259;62821;-56
2023/10/28 09:35:19;;;;;;;3.10;0.90;;;;;;;14.25;54.85;98287.38;108830;1260;61379;-56
2023/10/28 09:37:47;;;;;;;3.50;1.00;;;;;;;14.30;55.15;98268.30;108753;1260;63812;-56
2023/10/28 09:40:14;;;;;;;2.80;1.00;;;;;;;14.33;55.30;98273.02;108819;1260;57451;-54
2023/10/28 09:42:43;;;;;;;2.50;1.00;;;;;;;14.36;55.05;98276.23;108814;1261;57469;-59
2023/10/28 09:45:12;;;;;;;4.60;1.30;;;;;;;14.36;55.06;98306.27;108722;1259;64386;-57
2023/10/28 09:47:57;;;;;;;3.20;1.30;;;;;;;14.34;54.67;98302.89;108836;1260;60296;-56
2023/10/28 09:50:29;;;;;;;3.90;1.30;;;;;;;14.33;54.58;98297.38;108747;1262;64688;-57
2023/10/28 09:52:57;;;;;;;3.20;1.30;;;;;;;14.29;54.56;98302.21;108751;1259;58674;-57
2023/10/28 09:55:34;;;;;;;4.20;1.40;;;;;;;14.31;54.72;98310.85;108831;1259;57384;-57
2023/10/28 09:58:08;;;;;;;4.30;1.00;;;;;;;14.27;54.47;98322.14;108858;1261;64353;-58
2023/10/28 10:00:37;;;;;;;5.00;1.30;;;;;;;14.26;54.45;98310.70;108766;1261;61471;-55
2023/10/28 10:03:33;;;;;;;3.30;1.10;;;;;;;14.27;54.63;98349.75;108756;1259;63803;-58
2023/10/28 10:06:00;;;;;;;3.00;1.10;;;;;;;14.34;54.44;98344.89;108741;1260;57366;-57
2023/10/28 10:08:28;;;;;;;3.20;1.10;;;;;;;14.39;54.49;98361.52;108784;1262;59941;-55
2023/10/28 10:10:57;;;;;;;6.20;1.40;;;;;;;14.40;54.23;98353.23;108780;1260;62846;-56
2023/10/28 10:19:00;;;;;;;2.80;1.00;;;;;;;14.35;54.77;98382.06;104220;1295;600470;-89
2023/10/28 10:21:42;;;;;;;2.90;1.00;;;;;;;14.51;54.38;98391.31;106815;1269;60214;-88
2023/10/28 10:24:24;;;;;;;3.00;1.00;;;;;;;14.49;54.30;98403.61;106209;1273;59420;-90
2023/10/28 10:27:10;;;;;;;2.90;1.00;;;;;;;14.50;54.35;98406.35;106588;1274;63436;-89
2023/10/28 10:29:48;;;;;;;2.60;0.90;;;;;;;14.47;54.24;98424.20;106555;1275;71614;-90
2023/10/28 10:34:02;;;;;;;4.30;1.20;;;;;;;14.34;54.80;98456.52;105468;1292;599605;-89
2023/10/28 10:37:49;;;;;;;3.90;1.20;;;;;;;14.31;54.72;98461.15;105953;1283;599682;-90
2023/10/28 10:40:21;;;;;;;3.20;1.20;;;;;;;14.46;54.31;98447.20;104134;1273;59257;-57
2023/10/28 10:42:48;;;;;;;1.90;0.80;;;;;;;14.45;54.25;98461.56;104216;1274;59420;-59
2023/10/28 10:45:18;;;;;;;6.40;1.40;;;;;;;14.41;54.34;98474.61;104121;1275;63351;-56
2023/10/28 10:47:47;;;;;;;6.90;1.20;;;;;;;14.35;54.20;98496.91;103993;1270;61391;-57
2023/10/28 10:50:15;;;;;;;3.40;1.00;;;;;;;14.33;54.27;98483.27;105625;1267;3487351;-58
2023/10/28 10:52:42;;;;;;;3.40;1.20;;;;;;;14.36;54.38;98484.15;108235;1266;57216;-57
2023/10/28 10:55:10;;;;;;;2.30;0.70;;;;;;;14.39;54.37;98491.66;108240;1266;58790;-56
2023/10/28 10:57:38;;;;;;;2.70;1.10;;;;;;;14.43;54.27;98501.98;108336;1267;63590;-58
2023/10/28 11:00:12;;;;;;;3.10;1.10;;;;;;;14.47;54.23;98500.73;108334;1266;61311;-57
2023/10/28 11:02:40;;;;;;;3.60;1.10;;;;;;;14.54;53.81;98498.23;106251;1266;62585;-57
2023/10/28 11:05:08;;;;;;;2.40;0.90;;;;;;;14.58;53.70;98507.94;104407;1266;60407;-58
2023/10/28 11:07:36;;;;;;;2.80;0.90;;;;;;;14.64;53.60;98520.02;104233;1267;59528;-57
2023/10/28 11:10:07;;;;;;;3.90;1.20;;;;;;;14.66;53.48;98528.49;104258;1271;64141;-57
2023/10/28 11:12:38;;;;;;;3.40;0.80;;;;;;;14.70;53.20;98522.17;104751;1266;60278;-65
2023/10/28 11:15:07;;;;;;;2.00;0.60;;;;;;;14.75;53.05;98527.73;104328;1268;62852;-55
2023/10/28 11:17:34;;;;;;;1.90;0.60;;;;;;;14.82;53.34;98533.18;105535;1267;59652;-56
2023/10/28 11:20:03;;;;;;;2.70;1.00;;;;;;;14.88;53.01;98549.02;104141;1266;59608;-59
2023/10/28 11:22:31;;;;;;;3.40;0.90;;;;;;;14.89;52.81;98545.73;106520;1266;64144;-57
2023/10/28 11:25:03;;;;;;;2.50;0.90;;;;;;;14.99;52.75;98539.10;104434;1267;63607;-55
2023/10/28 11:27:31;;;;;;;2.50;0.80;;;;;;;15.14;52.54;98543.56;104884;1260;65610;-57
2023/10/28 11:30:03;;;;;;;3.70;1.00;;;;;;;15.28;52.03;98547.78;105270;1257;59762;-58
2023/10/28 11:32:42;;;;;;;3.50;0.70;;;;;;;15.36;51.93;98558.57;105574;1260;59689;-59
2023/10/28 11:35:13;;;;;;;3.80;0.70;;;;;;;15.37;51.40;98576.55;105053;1262;64120;-60
2023/10/28 11:37:40;;;;;;;2.00;0.70;;;;;;;15.35;51.31;98591.79;104752;1262;62202;-57
2023/10/28 11:40:10;;;;;;;2.20;0.70;;;;;;;15.30;51.46;98587.45;105718;1260;63743;-60
2023/10/28 11:42:39;;;;;;;2.70;0.70;;;;;;;15.27;51.68;98603.25;105027;1264;59775;-57
2023/10/28 11:45:09;;;;;;;2.50;0.60;;;;;;;15.22;51.66;98604.70;108832;1257;57365;-56
2023/10/28 11:47:41;;;;;;;2.10;0.50;;;;;;;15.18;51.74;98605.94;105085;1258;62929;-56
2023/10/28 11:50:10;;;;;;;2.30;0.70;;;;;;;15.16;51.90;98618.81;108835;1257;61783;-57
2023/10/28 11:52:38;;;;;;;1.80;0.50;;;;;;;15.16;51.84;98616.48;108801;1258;63753;-58
2023/10/28 11:55:07;;;;;;;2.90;0.60;;;;;;;15.15;51.84;98632.17;106868;1256;60562;-58
2023/10/28 11:57:35;;;;;;;2.20;0.70;;;;;;;15.12;51.98;98636.64;108818;1257;57912;-58
2023/10/28 12:00:04;;;;;;;3.80;0.70;;;;;;;15.07;52.56;98649.54;107958;1257;62956;-55
2023/10/28 12:02:33;;;;;;;4.30;0.80;;;;;;;15.01;53.16;98667.09;105856;1257;61722;-58
2023/10/28 12:05:01;;;;;;;2.60;0.60;;;;;;;14.94;53.51;98655.69;105020;1257;63865;-57
2023/10/28 12:07:29;;;;;;;1.90;0.50;;;;;;;14.88;53.80;98679.75;104798;1260;60381;-57